createdAt,value
2018-12-14T00:06:31.318Z,1.59
2018-12-14T00:16:31.259Z,1.81
2018-12-14T00:26:31.263Z,1.25
2018-12-14T00:36:31.311Z,2.14
2018-12-14T00:46:31.237Z,1.60
2018-12-14T00:56:31.275Z,0.68
2018-12-14T01:06:31.359Z,0.76
2018-12-14T01:16:31.250Z,0.96
2018-12-14T01:26:31.241Z,1.40
2018-12-14T01:36:31.229Z,0.99
2018-12-14T01:46:31.235Z,0.82
2018-12-14T01:56:31.201Z,0.74
2018-12-14T02:06:31.279Z,0.92
2018-12-14T02:16:31.379Z,1.58
2018-12-14T02:26:31.212Z,1.74
2018-12-14T02:36:31.190Z,1.04
2018-12-14T02:46:31.205Z,1.31
2018-12-14T02:56:31.198Z,1.39
2018-12-14T03:06:31.231Z,1.33
2018-12-14T03:16:31.214Z,2.02
2018-12-14T03:26:31.187Z,1.59
2018-12-14T03:36:31.317Z,1.32
2018-12-14T03:46:31.263Z,1.32
2018-12-14T03:56:31.272Z,1.96
2018-12-14T04:06:31.259Z,1.62
2018-12-14T04:16:32.053Z,1.61
2018-12-14T04:26:31.232Z,1.13
2018-12-14T04:36:31.260Z,0.86
2018-12-14T04:46:31.170Z,0.90
2018-12-14T04:56:31.285Z,1.62
2018-12-14T05:06:31.644Z,1.78
2018-12-14T05:16:35.191Z,2.61
2018-12-14T05:26:31.186Z,2.23
2018-12-14T05:36:31.842Z,3.06
2018-12-14T05:46:31.168Z,2.13
2018-12-14T05:56:32.196Z,2.45
2018-12-14T06:06:31.234Z,2.67
2018-12-14T06:16:31.208Z,2.13
2018-12-14T06:26:31.141Z,2.87
2018-12-14T06:36:31.173Z,2.57
2018-12-14T06:46:31.210Z,2.05
2018-12-14T06:56:31.088Z,2.93
2018-12-14T07:06:31.197Z,2.41
2018-12-14T07:16:31.159Z,2.69
2018-12-14T07:26:31.179Z,2.64
2018-12-14T07:36:31.180Z,2.07
2018-12-14T07:46:31.365Z,1.35
2018-12-14T07:56:31.101Z,1.94
2018-12-14T08:06:31.231Z,2.29
2018-12-14T08:16:31.141Z,1.78
2018-12-14T08:26:31.655Z,1.97
2018-12-14T08:36:31.069Z,2.07
2018-12-14T08:46:32.202Z,2.07
2018-12-14T08:56:31.062Z,2.37
2018-12-14T09:06:31.088Z,2.04
2018-12-14T09:16:31.106Z,2.55
2018-12-14T09:26:31.148Z,2.56
2018-12-14T09:36:31.215Z,2.11
2018-12-14T09:46:36.902Z,2.35
2018-12-14T09:56:31.185Z,2.26
2018-12-14T10:06:31.101Z,1.94
2018-12-14T10:16:31.116Z,2.41
2018-12-14T10:26:31.143Z,2.30
2018-12-14T10:36:31.141Z,2.07
2018-12-14T10:46:31.011Z,2.30
2018-12-14T10:56:31.129Z,1.67
2018-12-14T11:06:31.072Z,2.80
2018-12-14T11:16:31.137Z,1.80
2018-12-14T11:26:31.075Z,2.26
2018-12-14T11:36:31.098Z,2.68
2018-12-14T11:46:31.892Z,2.40
2018-12-14T11:56:31.027Z,2.78
2018-12-14T12:06:31.061Z,1.21
2018-12-14T12:16:31.237Z,2.14
2018-12-14T12:26:31.113Z,1.67
2018-12-14T12:36:31.097Z,2.01
2018-12-14T12:46:31.088Z,1.89
2018-12-14T12:56:31.985Z,1.77
2018-12-14T13:06:31.967Z,1.93
2018-12-14T13:16:31.043Z,2.12
2018-12-14T13:26:31.222Z,1.61
2018-12-14T13:36:31.100Z,1.33
2018-12-14T13:46:31.779Z,1.50
2018-12-14T13:56:31.121Z,1.58
2018-12-14T14:06:32.905Z,1.53
2018-12-14T14:16:31.093Z,1.63
2018-12-14T14:26:31.080Z,2.59
2018-12-14T14:36:31.013Z,2.36
2018-12-14T14:46:31.048Z,2.55
2018-12-14T14:56:31.196Z,1.74
2018-12-14T15:06:31.117Z,1.47
2018-12-14T15:16:31.106Z,1.65
2018-12-14T15:26:32.886Z,1.65
2018-12-14T15:36:31.116Z,1.30
2018-12-14T15:46:30.953Z,1.53
2018-12-14T15:56:30.989Z,1.05
2018-12-14T16:06:31.135Z,1.31
2018-12-14T16:16:31.015Z,0.87
2018-12-14T16:26:30.943Z,0.70
2018-12-14T16:36:30.958Z,0.51
2018-12-14T16:46:31.120Z,0.31
2018-12-14T16:56:31.039Z,0.28
2018-12-14T17:06:30.974Z,0.07
2018-12-14T17:16:30.957Z,0.04
2018-12-14T17:26:31.083Z,0.99
2018-12-14T17:36:33.344Z,1.33
2018-12-14T17:46:30.982Z,1.17
2018-12-14T17:56:31.027Z,1.21
2018-12-14T18:06:31.056Z,1.35
2018-12-14T18:16:30.987Z,1.79
2018-12-14T18:26:30.863Z,2.21
2018-12-14T18:36:30.945Z,2.24
2018-12-14T18:46:30.912Z,1.67
2018-12-14T18:56:31.305Z,1.77
2018-12-14T19:06:30.962Z,1.62
2018-12-14T19:16:30.961Z,0.98
2018-12-14T19:26:30.945Z,1.30
2018-12-14T19:36:31.745Z,1.31
2018-12-14T19:46:31.023Z,0.94
2018-12-14T19:56:30.902Z,1.20
2018-12-14T20:06:30.951Z,0.96
2018-12-14T20:16:31.100Z,1.35
2018-12-14T20:26:30.925Z,1.08
2018-12-14T20:36:31.009Z,1.20
2018-12-14T20:46:31.002Z,1.71
2018-12-14T20:56:30.972Z,1.83
2018-12-14T21:06:31.185Z,1.80
2018-12-14T21:16:30.912Z,1.54
2018-12-14T21:26:30.961Z,1.91
2018-12-14T21:36:31.058Z,1.69
2018-12-14T21:46:32.681Z,1.75
2018-12-14T21:56:30.973Z,1.85
2018-12-14T22:06:30.900Z,1.77
2018-12-14T22:16:30.984Z,1.81
2018-12-14T22:26:30.928Z,1.31
2018-12-14T22:36:30.916Z,1.42
2018-12-14T22:46:30.949Z,1.17
2018-12-14T22:56:30.897Z,1.99
2018-12-14T23:06:31.029Z,1.87
2018-12-14T23:16:30.981Z,2.00
2018-12-14T23:26:30.964Z,1.71
2018-12-14T23:36:30.961Z,1.47
2018-12-14T23:46:30.940Z,1.67
2018-12-14T23:56:30.914Z,1.89
